createdAt,value
2022-12-19T00:00:41.067Z,80.76
2022-12-19T00:05:42.368Z,81.71
2022-12-19T00:10:43.629Z,81.55
2022-12-19T00:15:45.036Z,81.18
2022-12-19T00:20:46.404Z,80.34
2022-12-19T00:25:47.833Z,80.70
2022-12-19T00:30:50.141Z,80.84
2022-12-19T00:35:52.991Z,80.37
2022-12-19T00:40:54.208Z,79.89
2022-12-19T00:45:55.460Z,79.33
2022-12-19T00:50:56.710Z,79.53
2022-12-19T00:55:57.909Z,79.51
2022-12-19T01:00:59.195Z,79.59
2022-12-19T01:06:00.490Z,80.84
2022-12-19T01:11:01.881Z,81.23
2022-12-19T01:16:03.152Z,80.34
2022-12-19T01:21:04.470Z,79.93
2022-12-19T01:26:05.723Z,79.53
2022-12-19T01:31:07.028Z,77.51
2022-12-19T01:36:10.890Z,78.17
2022-12-19T01:41:12.154Z,78.17
2022-12-19T01:46:13.464Z,77.26
2022-12-19T01:51:16.221Z,77.26
2022-12-19T01:56:17.415Z,79.46
2022-12-19T02:01:19.603Z,80.56
2022-12-19T02:06:20.964Z,80.79
2022-12-19T02:11:22.181Z,79.95
2022-12-19T02:16:23.552Z,79.97
2022-12-19T02:21:27.232Z,79.90
2022-12-19T02:26:36.706Z,80.33
2022-12-19T02:31:38.035Z,80.27
2022-12-19T02:36:41.882Z,79.11
2022-12-19T02:41:43.917Z,78.37
2022-12-19T02:46:45.233Z,77.57
2022-12-19T02:51:46.475Z,76.93
2022-12-19T02:56:47.790Z,77.15
2022-12-19T03:01:49.823Z,76.52
2022-12-19T03:06:51.411Z,75.63
2022-12-19T03:11:52.812Z,74.55
2022-12-19T03:16:54.337Z,75.66
2022-12-19T03:21:55.850Z,76.88
2022-12-19T03:26:57.291Z,76.84
2022-12-19T03:31:58.604Z,76.29
2022-12-19T03:36:59.898Z,76.07
2022-12-19T03:42:19.970Z,76.01
2022-12-19T03:47:21.326Z,76.66
2022-12-19T03:52:22.600Z,77.89
2022-12-19T03:57:23.905Z,78.47
2022-12-19T04:02:25.323Z,78.37
2022-12-19T04:07:26.699Z,77.95
2022-12-19T04:12:27.967Z,77.04
2022-12-19T04:17:29.283Z,78.22
2022-12-19T04:22:30.550Z,78.83
2022-12-19T04:27:31.808Z,78.27
2022-12-19T04:32:33.072Z,77.80
2022-12-19T04:37:34.516Z,78.23
2022-12-19T04:42:35.803Z,78.02
2022-12-19T04:47:37.132Z,78.08
2022-12-19T04:52:38.357Z,78.29
2022-12-19T04:57:39.606Z,77.84
2022-12-19T05:02:41.260Z,79.79
2022-12-19T05:07:42.701Z,79.77
2022-12-19T05:12:43.948Z,78.75
2022-12-19T05:17:45.268Z,78.69
2022-12-19T05:22:46.536Z,79.09
2022-12-19T05:27:47.744Z,79.92
2022-12-19T05:32:48.953Z,80.33
2022-12-19T05:37:50.238Z,79.99
2022-12-19T05:42:51.479Z,80.82
2022-12-19T05:47:52.745Z,80.98
2022-12-19T05:52:53.963Z,80.82
2022-12-19T05:57:55.706Z,80.27
2022-12-19T06:02:57.127Z,79.33
2022-12-19T06:07:58.707Z,79.14
2022-12-19T06:13:00.546Z,78.92
2022-12-19T06:18:02.022Z,78.27
2022-12-19T06:23:03.303Z,78.13
2022-12-19T06:28:04.651Z,77.34
2022-12-19T06:33:05.924Z,77.05
2022-12-19T06:38:09.592Z,77.65
2022-12-19T06:43:10.810Z,78.18
2022-12-19T06:48:12.066Z,78.81
2022-12-19T06:53:13.275Z,78.28
2022-12-19T06:58:15.060Z,78.43
2022-12-19T07:03:16.360Z,77.31
2022-12-19T07:08:17.692Z,77.17
2022-12-19T07:13:18.907Z,77.73
2022-12-19T07:18:20.163Z,78.74
2022-12-19T07:23:21.416Z,77.93
2022-12-19T07:28:25.468Z,77.72
2022-12-19T07:33:26.802Z,77.13
2022-12-19T07:38:28.114Z,77.43
2022-12-19T07:43:29.459Z,77.55
2022-12-19T07:48:30.857Z,76.73
2022-12-19T07:53:32.211Z,76.43
2022-12-19T07:58:33.427Z,77.15
2022-12-19T08:03:35.975Z,77.97
2022-12-19T08:08:37.844Z,78.04
2022-12-19T08:13:45.979Z,78.55
2022-12-19T08:18:47.965Z,79.48
2022-12-19T08:23:49.220Z,80.02
2022-12-19T08:28:50.433Z,79.34
2022-12-19T08:33:51.682Z,78.82
2022-12-19T08:38:53.375Z,80.12
2022-12-19T08:43:55.338Z,80.29
2022-12-19T08:48:56.540Z,79.00
2022-12-19T08:53:57.765Z,79.44
2022-12-19T08:58:58.981Z,79.02
2022-12-19T09:04:27.914Z,79.11
2022-12-19T09:09:21.488Z,79.62
2022-12-19T09:14:22.802Z,80.00
2022-12-19T09:19:24.072Z,81.36
2022-12-19T09:24:25.303Z,82.06
2022-12-19T09:29:29.700Z,82.11
2022-12-19T09:34:38.637Z,82.30
2022-12-19T09:39:40.283Z,81.93
2022-12-19T09:44:41.513Z,80.94
2022-12-19T09:49:43.390Z,80.22
2022-12-19T09:54:44.918Z,80.09
2022-12-19T09:59:49.892Z,79.90
2022-12-19T10:04:55.064Z,79.47
2022-12-19T10:12:36.447Z,78.94
2022-12-19T10:15:30.221Z,79.54
2022-12-19T10:20:31.502Z,79.71
2022-12-19T10:25:32.726Z,79.54
2022-12-19T10:30:33.928Z,79.28
2022-12-19T10:35:35.189Z,78.36
2022-12-19T10:40:36.494Z,78.51
2022-12-19T10:45:37.989Z,78.67
2022-12-19T10:50:40.333Z,77.76
2022-12-19T10:55:42.682Z,76.77
2022-12-19T11:00:44.019Z,77.03
2022-12-19T11:05:47.356Z,77.35
2022-12-19T11:13:16.585Z,78.09
2022-12-19T11:20:48.585Z,77.67
2022-12-19T11:29:46.487Z,77.46
2022-12-19T11:30:39.205Z,78.06
2022-12-19T11:32:39.739Z,77.22
2022-12-19T11:37:39.514Z,76.53
2022-12-19T11:42:40.726Z,77.32
2022-12-19T11:47:42.066Z,76.69
2022-12-19T11:58:04.575Z,75.56
2022-12-19T12:03:05.951Z,75.67
2022-12-19T12:10:12.778Z,75.51
2022-12-19T12:20:36.362Z,75.38
2022-12-19T12:31:09.985Z,75.64
2022-12-19T12:31:42.237Z,77.16
2022-12-19T12:32:00.570Z,76.90
2022-12-19T12:37:08.232Z,76.89
2022-12-19T12:40:15.379Z,75.92
2022-12-19T12:45:25.400Z,77.25
2022-12-19T12:50:26.795Z,76.08
2022-12-19T12:55:28.035Z,76.46
2022-12-19T13:00:29.305Z,75.01
2022-12-19T13:05:30.589Z,73.50
2022-12-19T13:10:31.869Z,74.58
2022-12-19T13:15:34.380Z,74.61
2022-12-19T13:20:35.597Z,74.27
2022-12-19T13:25:36.855Z,74.57
2022-12-19T13:31:02.202Z,74.36
2022-12-19T13:39:46.921Z,73.99
2022-12-19T13:41:43.903Z,75.58
2022-12-19T13:46:45.178Z,75.96
2022-12-19T13:51:46.444Z,75.90
2022-12-19T13:56:47.765Z,76.51
2022-12-19T14:01:49.063Z,77.04
2022-12-19T14:06:50.348Z,77.62
2022-12-19T14:12:26.483Z,77.62
2022-12-19T14:17:12.768Z,77.45
2022-12-19T14:22:20.752Z,77.46
2022-12-19T14:28:19.381Z,76.95
2022-12-19T14:33:45.852Z,77.16
2022-12-19T14:39:26.316Z,76.83
2022-12-19T14:43:59.774Z,76.77
2022-12-19T14:54:06.399Z,75.99
2022-12-19T14:59:52.113Z,76.41
2022-12-19T15:04:55.142Z,76.26
2022-12-19T15:11:09.507Z,75.38
2022-12-19T15:15:18.434Z,75.20
2022-12-19T15:20:19.701Z,75.91
2022-12-19T15:26:01.154Z,76.76
2022-12-19T15:30:42.185Z,76.56
2022-12-19T15:35:43.393Z,75.88
2022-12-19T15:40:44.682Z,75.13
2022-12-19T15:45:45.956Z,75.27
2022-12-19T15:50:47.210Z,75.21
2022-12-19T15:55:48.522Z,75.19
2022-12-19T16:00:49.732Z,75.51
2022-12-19T16:05:51.116Z,76.68
2022-12-19T16:11:01.033Z,76.99
2022-12-19T16:16:06.363Z,76.84
2022-12-19T16:21:12.245Z,76.65
2022-12-19T16:26:13.502Z,77.21
2022-12-19T16:31:14.797Z,77.28
2022-12-19T16:36:16.066Z,77.53
2022-12-19T16:41:17.445Z,77.75
2022-12-19T16:46:18.824Z,77.00
2022-12-19T16:51:20.162Z,77.51
2022-12-19T16:56:21.521Z,77.43
2022-12-19T17:01:22.932Z,76.88
2022-12-19T17:06:24.397Z,76.15
2022-12-19T17:11:25.623Z,76.16
2022-12-19T17:16:27.082Z,75.56
2022-12-19T17:21:28.367Z,75.92
2022-12-19T17:26:29.796Z,75.31
2022-12-19T17:31:37.979Z,75.64
2022-12-19T17:36:39.482Z,74.95
2022-12-19T17:41:40.925Z,74.49
2022-12-19T17:46:42.215Z,74.22
2022-12-19T17:51:43.502Z,74.92
2022-12-19T17:56:44.777Z,74.29
2022-12-19T18:01:49.344Z,73.26
2022-12-19T18:06:51.651Z,73.34
2022-12-19T18:11:53.153Z,74.23
2022-12-19T18:16:54.454Z,74.19
2022-12-19T18:21:55.766Z,74.70
2022-12-19T18:26:57.032Z,74.71
2022-12-19T18:31:58.409Z,73.97
2022-12-19T18:36:59.623Z,74.87
2022-12-19T18:42:01.238Z,74.35
2022-12-19T18:47:02.507Z,73.95
2022-12-19T18:52:03.724Z,73.39
2022-12-19T18:57:04.963Z,74.95
2022-12-19T19:02:06.377Z,74.48
2022-12-19T19:07:07.715Z,74.20
2022-12-19T19:12:08.965Z,74.10
2022-12-19T19:17:10.338Z,74.84
2022-12-19T19:22:11.721Z,72.94
2022-12-19T19:27:13.008Z,72.95
2022-12-19T19:32:14.361Z,72.40
2022-12-19T19:37:15.645Z,71.64
2022-12-19T19:42:18.773Z,71.95
2022-12-19T19:47:20.052Z,71.70
2022-12-19T19:52:21.272Z,71.85
2022-12-19T19:57:22.527Z,71.03
2022-12-19T20:07:36.859Z,70.41
2022-12-19T20:12:38.183Z,70.30
2022-12-19T20:17:39.664Z,71.46
2022-12-19T20:22:42.546Z,71.29
2022-12-19T20:27:43.876Z,71.49
2022-12-19T20:32:45.393Z,72.43
2022-12-19T20:37:46.679Z,72.03
2022-12-19T20:42:48.033Z,72.83
2022-12-19T20:47:49.465Z,73.04
2022-12-19T20:52:50.743Z,72.81
2022-12-19T20:57:52.095Z,72.68
2022-12-19T21:03:26.219Z,72.12
2022-12-19T21:08:17.682Z,73.53
2022-12-19T21:13:18.934Z,73.53
2022-12-19T21:18:20.252Z,73.33
2022-12-19T21:23:21.465Z,73.71
2022-12-19T21:28:22.722Z,73.77
2022-12-19T21:33:29.962Z,73.21
2022-12-19T21:38:41.993Z,73.48
2022-12-19T21:43:43.582Z,73.63
2022-12-19T21:48:44.832Z,73.34
2022-12-19T21:53:46.184Z,73.05
2022-12-19T21:58:47.511Z,73.10
2022-12-19T22:03:49.039Z,73.73
2022-12-19T22:08:50.373Z,73.86
2022-12-19T22:13:51.652Z,74.21
2022-12-19T22:18:53.119Z,74.27
2022-12-19T22:23:54.469Z,73.99
2022-12-19T22:28:55.722Z,74.14
2022-12-19T22:33:57.090Z,74.00
2022-12-19T22:38:58.533Z,74.53
2022-12-19T22:44:00.335Z,74.57
2022-12-19T22:49:01.639Z,75.05
2022-12-19T22:54:02.897Z,74.42
2022-12-19T22:59:06.921Z,73.63
2022-12-19T23:04:08.311Z,73.49
2022-12-19T23:09:09.670Z,73.15
2022-12-19T23:14:10.916Z,73.16
2022-12-19T23:19:15.134Z,73.23
2022-12-19T23:24:16.416Z,73.07
2022-12-19T23:29:17.693Z,73.72
2022-12-19T23:34:18.974Z,73.74
2022-12-19T23:39:20.326Z,73.32
2022-12-19T23:44:21.852Z,72.97
2022-12-19T23:49:23.150Z,73.59
2022-12-19T23:54:24.493Z,74.33
2022-12-19T23:59:25.825Z,74.63
